createdAt,value
2018-04-07T00:02:26.190Z,51.70
2018-04-07T00:04:53.691Z,51.60
2018-04-07T00:07:21.238Z,51.80
2018-04-07T00:09:48.942Z,51.60
2018-04-07T00:12:16.610Z,51.60
2018-04-07T00:14:44.225Z,51.50
2018-04-07T00:17:11.886Z,51.60
2018-04-07T00:19:39.542Z,51.40
2018-04-07T00:22:07.209Z,51.60
2018-04-07T00:24:34.920Z,51.90
2018-04-07T00:27:02.596Z,51.80
2018-04-07T00:29:30.407Z,51.50
2018-04-07T00:31:58.049Z,51.40
2018-04-07T00:34:25.731Z,51.90
2018-04-07T00:36:53.502Z,51.80
2018-04-07T00:39:21.708Z,51.50
2018-04-07T00:41:49.358Z,51.50
2018-04-07T00:44:17.012Z,51.60
2018-04-07T00:46:44.685Z,51.60
2018-04-07T00:49:12.299Z,52.00
2018-04-07T00:51:39.821Z,52.00
2018-04-07T00:54:07.615Z,51.70
2018-04-07T00:56:35.278Z,51.80
2018-04-07T00:59:02.939Z,52.00
2018-04-07T01:01:30.806Z,52.00
2018-04-07T01:03:58.624Z,52.20
2018-04-07T01:06:31.314Z,52.10
2018-04-07T01:08:59.191Z,51.80
2018-04-07T01:11:26.830Z,51.90
2018-04-07T01:13:54.502Z,51.80
2018-04-07T01:16:22.117Z,51.90
2018-04-07T01:18:49.813Z,51.90
2018-04-07T01:21:17.458Z,51.90
2018-04-07T01:23:45.148Z,52.00
2018-04-07T01:26:12.995Z,52.00
2018-04-07T01:28:40.642Z,52.10
2018-04-07T01:31:08.516Z,52.10
2018-04-07T01:33:36.384Z,51.90
2018-04-07T01:36:03.910Z,52.00
2018-04-07T01:38:31.860Z,52.00
2018-04-07T01:40:59.394Z,52.00
2018-04-07T01:43:26.979Z,52.10
2018-04-07T01:45:54.637Z,52.50
2018-04-07T01:48:22.350Z,52.30
2018-04-07T01:50:50.013Z,52.20
2018-04-07T01:53:18.907Z,52.20
2018-04-07T01:55:46.513Z,52.50
2018-04-07T01:58:14.058Z,52.30
2018-04-07T02:00:43.317Z,52.20
2018-04-07T02:03:10.951Z,52.40
2018-04-07T02:05:38.565Z,52.30
2018-04-07T02:08:06.372Z,52.30
2018-04-07T02:10:37.190Z,52.50
2018-04-07T02:13:24.755Z,52.50
2018-04-07T02:15:52.424Z,52.80
2018-04-07T02:18:20.098Z,52.70
2018-04-07T02:20:47.739Z,52.50
2018-04-07T02:23:15.400Z,52.70
2018-04-07T02:25:43.095Z,52.70
2018-04-07T02:28:10.758Z,52.80
2018-04-07T02:30:38.391Z,52.70
2018-04-07T02:33:06.069Z,52.50
2018-04-07T02:35:33.715Z,52.30
2018-04-07T02:38:01.367Z,52.70
2018-04-07T02:40:28.978Z,52.30
2018-04-07T02:42:56.711Z,52.80
2018-04-07T02:45:24.356Z,52.70
2018-04-07T02:47:52.229Z,52.70
2018-04-07T02:50:19.854Z,52.80
2018-04-07T02:52:47.537Z,52.40
2018-04-07T02:55:15.443Z,52.50
2018-04-07T02:57:42.952Z,52.90
2018-04-07T03:00:10.941Z,52.90
2018-04-07T03:02:38.449Z,52.70
2018-04-07T03:05:06.077Z,52.90
2018-04-07T03:07:34.076Z,52.90
2018-04-07T03:10:01.734Z,52.70
2018-04-07T03:12:29.391Z,52.90
2018-04-07T03:15:08.278Z,53.00
2018-04-07T03:17:35.778Z,53.00
2018-04-07T03:20:03.287Z,52.90
2018-04-07T03:22:30.799Z,52.90
2018-04-07T03:24:58.781Z,52.80
2018-04-07T03:27:26.412Z,52.70
2018-04-07T03:29:54.338Z,53.10
2018-04-07T03:32:22.006Z,53.00
2018-04-07T03:34:49.604Z,53.10
2018-04-07T03:37:17.163Z,53.10
2018-04-07T03:39:44.921Z,53.00
2018-04-07T03:42:12.494Z,52.90
2018-04-07T03:44:40.452Z,53.30
2018-04-07T03:47:08.121Z,53.30
2018-04-07T03:49:35.627Z,53.20
2018-04-07T03:52:03.314Z,53.30
2018-04-07T03:54:30.930Z,53.00
2018-04-07T03:56:58.544Z,53.20
2018-04-07T03:59:26.282Z,53.00
2018-04-07T04:01:53.861Z,53.00
2018-04-07T04:04:21.539Z,53.30
2018-04-07T04:06:49.154Z,53.10
2018-04-07T04:09:16.853Z,53.00
2018-04-07T04:11:44.755Z,53.20
2018-04-07T04:14:12.252Z,53.20
2018-04-07T04:16:43.386Z,53.30
2018-04-07T04:19:11.174Z,53.20
2018-04-07T04:21:38.682Z,53.10
2018-04-07T04:24:06.209Z,53.20
2018-04-07T04:26:34.118Z,53.40
2018-04-07T04:29:01.823Z,53.40
2018-04-07T04:31:29.332Z,53.30
2018-04-07T04:33:56.998Z,53.20
2018-04-07T04:36:24.644Z,53.20
2018-04-07T04:38:52.310Z,53.30
2018-04-07T04:41:19.832Z,53.20
2018-04-07T04:43:47.794Z,53.40
2018-04-07T04:46:15.450Z,53.40
2018-04-07T04:48:43.552Z,53.40
2018-04-07T04:51:11.080Z,53.60
2018-04-07T04:53:38.845Z,53.40
2018-04-07T04:56:06.507Z,53.70
2018-04-07T04:58:34.015Z,53.60
2018-04-07T05:01:01.691Z,53.60
2018-04-07T05:03:29.201Z,53.50
2018-04-07T05:05:57.204Z,53.30
2018-04-07T05:08:24.814Z,53.30
2018-04-07T05:10:52.466Z,53.50
2018-04-07T05:13:20.134Z,53.40
2018-04-07T05:15:47.648Z,53.40
2018-04-07T05:18:15.303Z,53.60
2018-04-07T05:20:43.018Z,53.50
2018-04-07T05:23:10.569Z,53.50
2018-04-07T05:25:38.485Z,53.60
2018-04-07T05:28:06.202Z,53.50
2018-04-07T05:30:33.825Z,53.80
2018-04-07T05:33:01.340Z,53.70
2018-04-07T05:35:29.424Z,53.90
2018-04-07T05:37:56.948Z,53.90
2018-04-07T05:40:24.646Z,53.80
2018-04-07T05:42:52.533Z,53.50
2018-04-07T05:45:25.301Z,53.60
2018-04-07T05:47:52.923Z,53.60
2018-04-07T05:50:20.566Z,53.60
2018-04-07T05:52:48.226Z,53.60
2018-04-07T05:55:15.739Z,53.70
2018-04-07T05:57:43.393Z,53.60
2018-04-07T06:00:11.010Z,53.70
2018-04-07T06:02:38.530Z,53.70
2018-04-07T06:05:06.110Z,53.90
2018-04-07T06:07:33.838Z,53.70
2018-04-07T06:10:01.500Z,53.80
2018-04-07T06:12:29.007Z,53.80
2018-04-07T06:14:56.610Z,53.80
2018-04-07T06:17:25.518Z,53.80
2018-04-07T06:19:53.126Z,53.80
2018-04-07T06:22:20.646Z,53.90
2018-04-07T06:24:48.291Z,53.90
2018-04-07T06:27:15.790Z,53.90
2018-04-07T06:29:43.447Z,54.00
2018-04-07T06:32:10.958Z,54.00
2018-04-07T06:34:38.672Z,54.00
2018-04-07T06:37:06.339Z,54.00
2018-04-07T06:39:34.046Z,54.10
2018-04-07T06:42:01.724Z,54.10
2018-04-07T06:44:29.772Z,54.10
2018-04-07T06:46:57.278Z,54.10
2018-04-07T06:49:25.096Z,54.20
2018-04-07T06:52:06.154Z,54.20
2018-04-07T06:54:33.906Z,54.20
2018-04-07T06:57:01.417Z,54.20
2018-04-07T06:59:29.072Z,54.20
2018-04-07T07:01:56.659Z,54.30
2018-04-07T07:04:24.326Z,54.30
2018-04-07T07:06:52.045Z,54.30
2018-04-07T07:09:19.644Z,54.30
2018-04-07T07:11:47.294Z,54.30
2018-04-07T07:14:14.971Z,54.30
2018-04-07T07:16:42.622Z,54.40
2018-04-07T07:19:10.286Z,54.40
2018-04-07T07:21:38.062Z,54.50
2018-04-07T07:24:06.287Z,54.50
2018-04-07T07:26:33.866Z,54.50
2018-04-07T07:29:01.553Z,54.60
2018-04-07T07:31:37.274Z,54.50
2018-04-07T07:34:04.916Z,54.60
2018-04-07T07:36:32.627Z,54.60
2018-04-07T07:39:00.247Z,54.60
2018-04-07T07:41:28.042Z,54.60
2018-04-07T07:43:55.768Z,54.70
2018-04-07T07:46:23.387Z,54.70
2018-04-07T07:48:50.895Z,54.60
2018-04-07T07:51:18.474Z,54.70
2018-04-07T07:53:46.182Z,54.80
2018-04-07T07:56:13.695Z,54.80
2018-04-07T07:58:43.509Z,54.80
2018-04-07T08:01:11.174Z,54.90
2018-04-07T08:03:38.689Z,54.90
2018-04-07T08:06:06.336Z,54.90
2018-04-07T08:08:33.949Z,55.00
2018-04-07T08:11:01.606Z,55.00
2018-04-07T08:13:29.286Z,55.00
2018-04-07T08:15:56.980Z,55.00
2018-04-07T08:18:24.604Z,55.10
2018-04-07T08:20:52.530Z,55.10
2018-04-07T08:23:20.171Z,55.10
2018-04-07T08:25:47.783Z,55.20
2018-04-07T08:28:15.303Z,55.10
2018-04-07T08:30:42.823Z,55.20
2018-04-07T08:33:10.570Z,55.30
2018-04-07T08:35:38.623Z,55.30
2018-04-07T08:38:06.141Z,55.30
2018-04-07T08:40:33.646Z,55.30
2018-04-07T08:43:01.155Z,55.30
2018-04-07T08:45:28.681Z,55.40
2018-04-07T08:47:56.311Z,55.40
2018-04-07T08:50:23.832Z,55.40
2018-04-07T08:52:51.347Z,55.50
2018-04-07T08:55:19.470Z,55.50
2018-04-07T08:57:47.035Z,55.50
2018-04-07T09:00:25.163Z,55.50
2018-04-07T09:02:52.719Z,55.60
2018-04-07T09:05:20.642Z,55.60
2018-04-07T09:07:48.276Z,55.60
2018-04-07T09:10:16.143Z,55.60
2018-04-07T09:12:43.776Z,55.60
2018-04-07T09:15:11.462Z,55.60
2018-04-07T09:17:39.093Z,55.70
2018-04-07T09:20:06.631Z,55.70
2018-04-07T09:22:34.218Z,55.80
2018-04-07T09:25:01.864Z,55.80
2018-04-07T09:27:29.502Z,55.80
2018-04-07T09:29:57.016Z,55.80
2018-04-07T09:32:24.650Z,55.90
2018-04-07T09:34:52.155Z,55.90
2018-04-07T09:37:19.785Z,55.90
2018-04-07T09:39:47.293Z,55.90
2018-04-07T09:42:14.893Z,55.90
2018-04-07T09:44:42.550Z,55.90
2018-04-07T09:47:10.266Z,56.00
2018-04-07T09:49:37.873Z,56.00
2018-04-07T09:52:05.395Z,56.00
2018-04-07T09:54:32.987Z,56.00
2018-04-07T09:57:00.506Z,56.00
2018-04-07T09:59:28.142Z,56.00
2018-04-07T10:01:58.691Z,56.10
2018-04-07T10:04:26.295Z,56.10
2018-04-07T10:06:55.852Z,56.10
2018-04-07T10:09:23.462Z,56.10
2018-04-07T10:11:55.472Z,56.20
2018-04-07T10:14:23.305Z,56.20
2018-04-07T10:16:55.458Z,56.20
2018-04-07T10:19:23.083Z,56.30
2018-04-07T10:21:50.610Z,56.30
2018-04-07T10:24:18.299Z,56.30
2018-04-07T10:26:45.891Z,56.30
2018-04-07T10:29:13.552Z,56.30
2018-04-07T10:31:41.267Z,56.30
2018-04-07T10:34:08.886Z,56.40
2018-04-07T10:36:36.578Z,56.40
2018-04-07T10:39:07.102Z,56.40
2018-04-07T10:41:34.767Z,56.50
2018-04-07T10:44:02.379Z,56.50
2018-04-07T10:46:30.094Z,56.50
2018-04-07T10:48:57.703Z,56.50
2018-04-07T10:51:25.357Z,56.50
2018-04-07T10:53:55.478Z,56.60
2018-04-07T10:56:23.134Z,56.60
2018-04-07T10:58:50.727Z,56.60
2018-04-07T11:01:18.676Z,56.60
2018-04-07T11:03:46.318Z,56.60
2018-04-07T11:06:13.823Z,56.70
2018-04-07T11:08:41.438Z,56.70
2018-04-07T11:11:09.146Z,56.70
2018-04-07T11:13:36.814Z,56.70
2018-04-07T11:16:04.418Z,56.70
2018-04-07T11:18:31.983Z,56.40
2018-04-07T11:20:59.543Z,56.10
2018-04-07T11:23:27.466Z,55.80
2018-04-07T11:25:55.065Z,55.60
2018-04-07T11:28:22.747Z,55.20
2018-04-07T11:30:50.770Z,54.60
2018-04-07T11:33:18.467Z,54.40
2018-04-07T11:35:45.972Z,54.20
2018-04-07T11:38:13.529Z,53.70
2018-04-07T11:40:41.332Z,53.20
2018-04-07T11:43:09.148Z,53.30
2018-04-07T11:45:36.809Z,53.00
2018-04-07T11:48:04.434Z,52.90
2018-04-07T11:50:32.089Z,52.60
2018-04-07T11:53:00.009Z,52.50
2018-04-07T11:55:27.878Z,52.50
2018-04-07T11:57:55.478Z,52.30
2018-04-07T12:00:23.408Z,52.20
2018-04-07T12:02:51.015Z,52.20
2018-04-07T12:05:18.670Z,52.30
2018-04-07T12:07:46.372Z,52.10
2018-04-07T12:10:13.995Z,52.00
2018-04-07T12:12:41.695Z,52.00
2018-04-07T12:15:13.890Z,52.10
2018-04-07T12:17:41.571Z,51.90
2018-04-07T12:20:09.130Z,51.90
2018-04-07T12:22:36.714Z,51.90
2018-04-07T12:25:04.672Z,51.90
2018-04-07T12:27:32.196Z,51.90
2018-04-07T12:29:59.791Z,51.80
2018-04-07T12:32:27.342Z,51.70
2018-04-07T12:34:54.899Z,51.70
2018-04-07T12:37:22.417Z,51.60
2018-04-07T12:39:50.221Z,51.70
2018-04-07T12:42:17.886Z,51.60
2018-04-07T12:44:45.392Z,51.70
2018-04-07T12:47:12.995Z,51.60
2018-04-07T12:49:40.862Z,51.60
2018-04-07T12:52:08.374Z,51.60
2018-04-07T12:54:36.053Z,51.60
2018-04-07T12:57:03.643Z,51.60
2018-04-07T12:59:31.158Z,51.60
2018-04-07T13:01:58.763Z,51.60
2018-04-07T13:04:26.281Z,51.60
2018-04-07T13:06:53.819Z,51.60
2018-04-07T13:09:21.335Z,51.30
2018-04-07T13:11:48.898Z,51.20
2018-04-07T13:14:16.443Z,51.20
2018-04-07T13:16:44.134Z,51.10
2018-04-07T13:19:11.817Z,51.00
2018-04-07T13:21:39.331Z,51.10
2018-04-07T13:24:06.883Z,51.20
2018-04-07T13:26:34.442Z,51.20
2018-04-07T13:29:02.009Z,51.10
2018-04-07T13:31:29.706Z,51.30
2018-04-07T13:33:57.371Z,51.30
2018-04-07T13:36:24.914Z,51.20
2018-04-07T13:38:53.060Z,51.20
2018-04-07T13:41:20.716Z,51.20
2018-04-07T13:44:00.364Z,51.30
2018-04-07T13:46:27.943Z,51.30
2018-04-07T13:48:55.588Z,51.40
2018-04-07T13:51:23.135Z,51.20
2018-04-07T13:53:50.724Z,51.30
2018-04-07T13:56:18.374Z,51.30
2018-04-07T13:58:49.941Z,51.40
2018-04-07T14:01:17.803Z,51.30
2018-04-07T14:03:45.426Z,51.30
2018-04-07T14:06:12.978Z,51.30
2018-04-07T14:08:40.833Z,51.30
2018-04-07T14:11:08.441Z,51.10
2018-04-07T14:13:36.088Z,51.20
2018-04-07T14:16:03.762Z,51.40
2018-04-07T14:18:31.745Z,51.20
2018-04-07T14:20:59.283Z,51.20
2018-04-07T14:23:27.002Z,51.30
2018-04-07T14:25:54.518Z,51.40
2018-04-07T14:28:22.428Z,51.30
2018-04-07T14:30:50.117Z,51.30
2018-04-07T14:33:17.638Z,51.30
2018-04-07T14:35:45.421Z,51.40
2018-04-07T14:38:13.711Z,51.40
2018-04-07T14:40:41.270Z,51.40
2018-04-07T14:43:09.035Z,51.20
2018-04-07T14:45:36.626Z,51.40
2018-04-07T14:48:04.142Z,51.60
2018-04-07T14:50:31.797Z,51.30
2018-04-07T14:52:59.527Z,51.30
2018-04-07T14:55:28.562Z,51.50
2018-04-07T14:57:56.253Z,51.70
2018-04-07T15:00:23.887Z,51.40
2018-04-07T15:02:51.394Z,51.40
2018-04-07T15:05:18.942Z,51.50
2018-04-07T15:07:46.501Z,51.50
2018-04-07T15:10:14.129Z,51.40
2018-04-07T15:12:41.634Z,51.30
2018-04-07T15:15:09.141Z,51.30
2018-04-07T15:17:37.162Z,51.60
2018-04-07T15:20:04.761Z,51.60
2018-04-07T15:22:32.458Z,51.40
2018-04-07T15:24:59.957Z,51.40
2018-04-07T15:27:27.608Z,51.50
2018-04-07T15:29:55.198Z,51.80
2018-04-07T15:32:22.876Z,51.70
2018-04-07T15:34:50.420Z,51.60
2018-04-07T15:37:18.236Z,51.60
2018-04-07T15:39:45.947Z,51.80
2018-04-07T15:42:13.513Z,51.70
2018-04-07T15:44:41.419Z,51.60
2018-04-07T15:47:09.037Z,51.50
2018-04-07T15:49:36.719Z,51.70
2018-04-07T15:52:04.271Z,51.80
2018-04-07T15:54:32.210Z,51.50
2018-04-07T15:56:59.778Z,51.50
2018-04-07T15:59:27.379Z,51.80
2018-04-07T16:01:55.020Z,52.70
2018-04-07T16:04:22.697Z,53.40
2018-04-07T16:06:50.339Z,54.10
2018-04-07T16:09:18.450Z,54.60
2018-04-07T16:11:45.964Z,55.10
2018-04-07T16:14:14.127Z,55.70
2018-04-07T16:16:41.782Z,55.70
2018-04-07T16:19:09.469Z,56.10
2018-04-07T16:21:37.387Z,56.50
2018-04-07T16:24:04.967Z,56.50
2018-04-07T16:26:32.494Z,56.70
2018-04-07T16:29:00.094Z,56.80
2018-04-07T16:31:27.684Z,57.00
2018-04-07T16:33:55.237Z,57.10
2018-04-07T16:36:22.882Z,57.20
2018-04-07T16:38:50.449Z,57.40
2018-04-07T16:41:18.390Z,57.60
2018-04-07T16:43:45.886Z,57.60
2018-04-07T16:46:13.432Z,57.70
2018-04-07T16:48:43.826Z,57.80
2018-04-07T16:51:11.342Z,57.80
2018-04-07T16:53:38.947Z,57.80
2018-04-07T16:56:06.606Z,57.90
2018-04-07T16:58:37.756Z,57.90
2018-04-07T17:01:05.256Z,58.00
2018-04-07T17:03:33.070Z,58.10
2018-04-07T17:06:00.731Z,58.10
2018-04-07T17:08:28.427Z,58.10
2018-04-07T17:11:07.391Z,58.20
2018-04-07T17:13:35.225Z,58.20
2018-04-07T17:16:02.849Z,58.30
2018-04-07T17:18:30.357Z,58.30
2018-04-07T17:20:57.975Z,58.30
2018-04-07T17:23:26.027Z,58.40
2018-04-07T17:25:53.694Z,58.40
2018-04-07T17:28:21.390Z,58.40
2018-04-07T17:30:49.043Z,58.40
2018-04-07T17:33:19.977Z,58.50
2018-04-07T17:35:47.606Z,58.50
2018-04-07T17:38:15.110Z,58.50
2018-04-07T17:40:42.739Z,58.60
2018-04-07T17:43:10.278Z,58.70
2018-04-07T17:45:37.900Z,58.70
2018-04-07T17:48:05.507Z,58.70
2018-04-07T17:50:33.182Z,58.80
2018-04-07T17:53:00.848Z,58.80
2018-04-07T17:55:28.379Z,58.80
2018-04-07T17:57:56.354Z,58.80
2018-04-07T18:00:23.888Z,58.80
2018-04-07T18:02:51.494Z,58.80
2018-04-07T18:05:19.390Z,58.80
2018-04-07T18:07:46.927Z,58.80
2018-04-07T18:10:19.778Z,58.90
2018-04-07T18:12:47.433Z,58.90
2018-04-07T18:15:15.104Z,58.90
2018-04-07T18:17:42.763Z,58.90
2018-04-07T18:20:10.619Z,58.90
2018-04-07T18:22:38.142Z,59.00
2018-04-07T18:25:05.723Z,59.00
2018-04-07T18:27:33.234Z,59.00
2018-04-07T18:30:00.762Z,59.00
2018-04-07T18:32:28.315Z,59.00
2018-04-07T18:34:55.834Z,59.00
2018-04-07T18:37:23.452Z,59.00
2018-04-07T18:39:51.102Z,59.10
2018-04-07T18:42:18.622Z,59.10
2018-04-07T18:44:46.813Z,59.10
2018-04-07T18:47:14.372Z,59.10
2018-04-07T18:49:41.928Z,59.20
2018-04-07T18:52:09.438Z,59.20
2018-04-07T18:54:37.050Z,59.20
2018-04-07T18:57:04.557Z,59.20
2018-04-07T18:59:32.207Z,59.20
2018-04-07T19:02:00.278Z,59.20
2018-04-07T19:04:27.782Z,59.20
2018-04-07T19:06:55.366Z,59.20
2018-04-07T19:09:22.867Z,59.20
2018-04-07T19:11:50.484Z,59.30
2018-04-07T19:14:18.148Z,59.30
2018-04-07T19:16:45.662Z,59.30
2018-04-07T19:19:13.261Z,59.30
2018-04-07T19:21:40.763Z,59.30
2018-04-07T19:24:08.369Z,59.30
2018-04-07T19:26:35.874Z,59.30
2018-04-07T19:29:03.390Z,59.30
2018-04-07T19:31:30.987Z,59.30
2018-04-07T19:33:58.486Z,59.30
2018-04-07T19:36:26.073Z,59.30
2018-04-07T19:38:53.726Z,59.30
2018-04-07T19:41:21.450Z,59.40
2018-04-07T19:43:49.454Z,59.40
2018-04-07T19:46:17.119Z,59.40
2018-04-07T19:48:44.641Z,59.40
2018-04-07T19:51:12.277Z,59.40
2018-04-07T19:53:39.900Z,59.40
2018-04-07T19:56:07.461Z,59.40
2018-04-07T19:58:35.276Z,59.40
2018-04-07T20:01:02.891Z,59.40
2018-04-07T20:03:31.561Z,59.40
2018-04-07T20:05:59.255Z,59.40
2018-04-07T20:08:27.152Z,59.40
2018-04-07T20:10:54.740Z,59.40
2018-04-07T20:13:22.247Z,59.40
2018-04-07T20:15:49.869Z,59.40
2018-04-07T20:18:17.527Z,59.40
2018-04-07T20:20:45.086Z,59.40
2018-04-07T20:23:12.601Z,59.40
2018-04-07T20:25:40.301Z,59.40
2018-04-07T20:28:07.973Z,59.40
2018-04-07T20:30:35.680Z,59.40
2018-04-07T20:33:03.606Z,59.40
2018-04-07T20:35:31.495Z,59.40
2018-04-07T20:38:09.153Z,59.40
2018-04-07T20:40:56.233Z,59.40
2018-04-07T20:43:24.058Z,59.50
2018-04-07T20:45:51.703Z,59.40
2018-04-07T20:48:19.256Z,59.40
2018-04-07T20:50:46.915Z,59.40
2018-04-07T20:53:14.734Z,59.50
2018-04-07T20:55:42.393Z,59.50
2018-04-07T20:58:09.962Z,59.50
2018-04-07T21:00:37.927Z,59.50
2018-04-07T21:03:05.674Z,59.50
2018-04-07T21:05:33.186Z,59.40
2018-04-07T21:08:00.699Z,59.50
2018-04-07T21:10:28.215Z,59.50
2018-04-07T21:12:55.762Z,59.50
2018-04-07T21:15:31.741Z,59.40
2018-04-07T21:17:59.682Z,59.50
2018-04-07T21:20:27.350Z,59.50
2018-04-07T21:22:55.005Z,59.50
2018-04-07T21:25:22.674Z,59.50
2018-04-07T21:27:50.343Z,59.50
2018-04-07T21:30:18.005Z,59.50
2018-04-07T21:32:45.514Z,59.50
2018-04-07T21:35:13.145Z,59.50
2018-04-07T21:37:40.689Z,59.40
2018-04-07T21:40:08.612Z,59.50
2018-04-07T21:42:36.295Z,59.50
2018-04-07T21:45:03.946Z,59.50
2018-04-07T21:47:31.606Z,59.50
2018-04-07T21:49:59.269Z,59.50
2018-04-07T21:52:26.784Z,59.50
2018-04-07T21:54:54.381Z,59.50
2018-04-07T21:57:22.108Z,59.50
2018-04-07T21:59:49.769Z,59.40
2018-04-07T22:02:17.502Z,59.50
2018-04-07T22:04:45.403Z,59.50
2018-04-07T22:07:12.922Z,59.50
2018-04-07T22:09:40.436Z,59.50
2018-04-07T22:12:08.042Z,59.50
2018-04-07T22:14:35.602Z,59.50
2018-04-07T22:17:03.778Z,59.50
2018-04-07T22:19:31.298Z,59.50
2018-04-07T22:21:59.112Z,59.50
2018-04-07T22:24:26.622Z,59.50
2018-04-07T22:26:54.136Z,59.50
2018-04-07T22:29:21.849Z,59.50
2018-04-07T22:31:49.378Z,59.50
2018-04-07T22:34:16.987Z,59.50
2018-04-07T22:36:44.617Z,59.50
2018-04-07T22:39:12.156Z,59.50
2018-04-07T22:41:39.827Z,59.50
2018-04-07T22:44:07.417Z,59.50
2018-04-07T22:46:35.089Z,59.50
2018-04-07T22:49:02.619Z,59.50
2018-04-07T22:51:30.122Z,59.50
2018-04-07T22:54:02.145Z,59.50
2018-04-07T22:56:29.658Z,59.50
2018-04-07T22:58:57.157Z,59.50
2018-04-07T23:01:24.723Z,59.50
2018-04-07T23:03:52.242Z,59.50
2018-04-07T23:06:19.838Z,59.50
2018-04-07T23:08:47.394Z,59.50
2018-04-07T23:11:14.950Z,59.50
2018-04-07T23:13:42.510Z,59.40
2018-04-07T23:16:10.096Z,59.50
2018-04-07T23:18:38.002Z,59.50
2018-04-07T23:21:05.604Z,59.50
2018-04-07T23:23:33.358Z,59.50
2018-04-07T23:26:00.885Z,59.50
2018-04-07T23:28:28.578Z,59.40
2018-04-07T23:30:56.088Z,59.50
2018-04-07T23:33:23.730Z,59.50
2018-04-07T23:35:51.630Z,59.50
2018-04-07T23:38:19.125Z,59.40
2018-04-07T23:40:47.082Z,59.50
2018-04-07T23:43:14.808Z,59.50
2018-04-07T23:45:42.407Z,59.50
2018-04-07T23:48:09.916Z,59.50
2018-04-07T23:50:37.453Z,59.50
2018-04-07T23:53:04.933Z,59.50
2018-04-07T23:55:32.536Z,59.50
2018-04-07T23:58:00.062Z,59.50
